Time;durP1;ratioP1;P1;durP2;ratioP2;P2;SDS_P1;SDS_P2;PMS_P1;PMS_P2;Temp;Humidity;BMP_temperature;BMP_pressure;BME280_temperature;BME280_humidity;BME280_pressure;Samples;Min_cycle;Max_cycle;Signal;HPM_P1;HPM_P2
2024/04/12 00:01:08;;;;;;;23.73;10.40;;;15.60;99.90;;;;;;5435372;26;20022;-69
2024/04/12 00:03:36;;;;;;;19.02;10.68;;;15.60;99.90;;;;;;5438136;26;20462;-69
2024/04/12 00:06:05;;;;;;;20.23;11.15;;;15.60;99.90;;;;;;5438693;26;19995;-69
2024/04/12 00:08:32;;;;;;;17.05;10.80;;;15.60;99.90;;;;;;5432766;26;19998;-69
2024/04/12 00:11:03;;;;;;;24.55;11.90;;;15.60;99.90;;;;;;5431423;26;20002;-68
2024/04/12 00:13:31;;;;;;;17.52;11.00;;;15.60;99.90;;;;;;5425938;26;20011;-70
2024/04/12 00:16:03;;;;;;;20.45;11.73;;;15.60;99.90;;;;;;5434812;26;20011;-69
2024/04/12 00:18:29;;;;;;;17.55;11.48;;;15.60;99.90;;;;;;5436295;26;20013;-69
2024/04/12 00:21:05;;;;;;;21.50;11.70;;;15.60;99.90;;;;;;5425030;26;20003;-70
2024/04/12 00:23:32;;;;;;;20.63;11.88;;;15.40;99.90;;;;;;5429635;26;20463;-69
2024/04/12 00:26:01;;;;;;;22.27;12.70;;;15.40;99.90;;;;;;5431809;26;20014;-68
2024/04/12 00:28:31;;;;;;;21.65;13.10;;;15.40;99.90;;;;;;5421874;26;20003;-70
2024/04/12 00:31:06;;;;;;;20.02;11.82;;;15.50;99.90;;;;;;5434232;26;19995;-70
2024/04/12 00:33:34;;;;;;;23.23;12.68;;;15.50;99.90;;;;;;5394364;26;20014;-69
2024/04/12 00:36:07;;;;;;;22.35;12.68;;;15.50;99.90;;;;;;5424276;26;20388;-69
2024/04/12 00:38:35;;;;;;;19.88;12.32;;;15.40;99.90;;;;;;5432727;26;19999;-69
2024/04/12 00:41:14;;;;;;;;;;;15.40;99.90;;;;;;5431011;26;20003;-69
2024/04/12 00:43:45;;;;;;;20.05;11.82;;;15.30;99.90;;;;;;5436287;25;19932;-70
2024/04/12 00:46:23;;;;;;;23.80;12.63;;;15.40;99.90;;;;;;5423727;25;20490;-69
2024/04/12 00:48:52;;;;;;;22.17;12.93;;;15.40;99.90;;;;;;5426321;26;20022;-69
2024/04/12 00:51:21;;;;;;;20.55;12.45;;;15.40;99.90;;;;;;5435093;26;20474;-69
2024/04/12 00:53:48;;;;;;;23.98;12.38;;;15.40;99.90;;;;;;5428251;26;20460;-70
2024/04/12 00:56:15;;;;;;;22.58;12.15;;;15.30;99.90;;;;;;5426074;26;20001;-71
2024/04/12 00:58:43;;;;;;;26.27;13.20;;;15.30;99.90;;;;;;5433615;26;20055;-69
2024/04/12 01:01:15;;;;;;;21.15;13.13;;;15.30;99.90;;;;;;5426572;26;20024;-69
2024/04/12 01:03:47;;;;;;;25.38;12.10;;;15.30;99.90;;;;;;5436865;26;20006;-69
2024/04/12 01:06:24;;;;;;;19.30;12.23;;;15.30;99.90;;;;;;5419844;26;20003;-70
2024/04/12 01:08:54;;;;;;;24.07;12.17;;;15.30;99.90;;;;;;5421743;26;20003;-69
2024/04/12 01:11:21;;;;;;;22.55;12.18;;;15.30;99.90;;;;;;5420846;26;20015;-68
2024/04/12 01:13:48;;;;;;;19.50;11.43;;;15.30;99.90;;;;;;5427355;26;20003;-69
2024/04/12 01:16:14;;;;;;;20.80;12.13;;;15.30;99.90;;;;;;5429144;26;19999;-68
2024/04/12 01:18:42;;;;;;;21.88;11.82;;;15.30;99.90;;;;;;5431277;26;20007;-69
2024/04/12 01:21:11;;;;;;;22.38;11.95;;;15.30;99.90;;;;;;5428333;26;20035;-69
2024/04/12 01:23:48;;;;;;;22.40;12.68;;;15.30;99.90;;;;;;5432191;26;19999;-68
2024/04/12 01:26:17;;;;;;;22.33;11.48;;;15.30;99.90;;;;;;5433936;26;20670;-69
2024/04/12 01:28:43;;;;;;;24.40;12.88;;;15.30;99.90;;;;;;5426445;26;20372;-68
2024/04/12 01:31:15;;;;;;;21.45;11.40;;;15.30;99.90;;;;;;5431350;26;20139;-68
2024/04/12 01:33:42;;;;;;;26.88;12.25;;;15.30;99.90;;;;;;5436781;26;19999;-71
2024/04/12 01:36:11;;;;;;;23.48;11.82;;;15.20;99.90;;;;;;5433414;26;19995;-69
2024/04/12 01:38:38;;;;;;;26.55;12.73;;;15.30;99.90;;;;;;5435790;26;20014;-68
2024/04/12 01:41:08;;;;;;;19.35;11.40;;;15.30;99.90;;;;;;5426946;26;20014;-70
2024/04/12 01:43:38;;;;;;;19.58;11.73;;;15.30;99.90;;;;;;5428656;26;20003;-70
2024/04/12 01:46:07;;;;;;;22.33;12.48;;;15.30;99.90;;;;;;5429851;26;20003;-69
2024/04/12 01:48:34;;;;;;;20.65;11.85;;;15.30;99.90;;;;;;5414127;26;20072;-69
2024/04/12 01:51:04;;;;;;;24.17;11.65;;;15.30;99.90;;;;;;5428244;26;20065;-68
2024/04/12 01:53:37;;;;;;;20.75;12.38;;;15.30;99.90;;;;;;5428461;26;20013;-71
2024/04/12 01:56:04;;;;;;;24.05;11.45;;;15.20;99.90;;;;;;5427587;26;20017;-69
2024/04/12 01:58:29;;;;;;;22.42;12.10;;;15.20;99.90;;;;;;5429311;26;20000;-69
2024/04/12 02:00:55;;;;;;;21.27;11.90;;;15.20;99.90;;;;;;5432576;26;20023;-69
2024/04/12 02:03:21;;;;;;;18.27;11.80;;;15.20;99.90;;;;;;5431716;26;19995;-68
2024/04/12 02:05:49;;;;;;;21.40;12.30;;;15.20;99.90;;;;;;5426949;26;20014;-70
2024/04/12 02:08:17;;;;;;;24.17;12.68;;;15.20;99.90;;;;;;5434114;26;19995;-69
2024/04/12 02:10:44;;;;;;;23.70;12.75;;;15.20;99.90;;;;;;5428803;26;20003;-69
2024/04/12 02:13:17;;;;;;;21.38;12.05;;;15.20;99.90;;;;;;5433270;26;20244;-69
2024/04/12 02:15:43;;;;;;;22.63;12.98;;;15.20;99.90;;;;;;5428016;26;20002;-69
2024/04/12 02:18:13;;;;;;;24.23;12.98;;;15.20;99.90;;;;;;5433560;26;20512;-69
2024/04/12 02:20:39;;;;;;;21.27;12.23;;;15.20;99.90;;;;;;5430399;26;20030;-68
2024/04/12 02:23:06;;;;;;;23.10;12.02;;;15.30;99.90;;;;;;5425405;26;20057;-69
2024/04/12 02:25:33;;;;;;;22.38;11.88;;;15.30;99.90;;;;;;5438622;26;20002;-69
2024/04/12 02:28:00;;;;;;;26.65;13.50;;;15.30;99.90;;;;;;5431217;26;20023;-69
2024/04/12 02:30:25;;;;;;;23.10;13.25;;;15.20;99.90;;;;;;5426011;26;20007;-70
2024/04/12 02:32:52;;;;;;;22.60;12.07;;;15.30;99.90;;;;;;5435983;26;20448;-72
2024/04/12 02:35:21;;;;;;;25.05;13.60;;;15.20;99.90;;;;;;5426093;26;20000;-69
2024/04/12 02:37:48;;;;;;;21.67;11.77;;;15.20;99.90;;;;;;5396686;26;20017;-70
2024/04/12 02:40:15;;;;;;;23.10;12.55;;;15.30;99.90;;;;;;5433343;26;20006;-71
2024/04/12 02:42:43;;;;;;;23.20;13.65;;;15.30;99.90;;;;;;5433331;26;20010;-69
2024/04/12 02:45:12;;;;;;;23.98;13.07;;;15.30;99.90;;;;;;5432008;26;20466;-68
2024/04/12 02:47:44;;;;;;;21.73;12.48;;;15.20;99.90;;;;;;5425552;26;20021;-69
2024/04/12 02:50:10;;;;;;;26.63;12.68;;;15.30;99.90;;;;;;5423293;26;20467;-69
2024/04/12 02:52:38;;;;;;;20.85;12.77;;;15.30;99.90;;;;;;5432028;26;19999;-69
2024/04/12 02:55:12;;;;;;;23.75;12.77;;;15.30;99.90;;;;;;5432416;26;19995;-72
2024/04/12 02:57:41;;;;;;;25.63;12.50;;;15.20;99.90;;;;;;5421752;26;19994;-69
2024/04/12 03:00:21;;;;;;;22.88;12.13;;;15.30;99.90;;;;;;5429873;26;20433;-71
2024/04/12 03:02:53;;;;;;;19.63;12.50;;;15.20;99.90;;;;;;5423847;26;20031;-69
2024/04/12 03:05:19;;;;;;;22.65;12.32;;;15.20;99.90;;;;;;5428360;26;20003;-69
2024/04/12 03:07:46;;;;;;;24.92;12.70;;;15.20;99.90;;;;;;5426927;26;20340;-69
2024/04/12 03:10:18;;;;;;;21.90;12.95;;;15.20;99.90;;;;;;5425453;26;20010;-71
2024/04/12 03:12:51;;;;;;;26.92;13.70;;;15.20;99.90;;;;;;5432183;26;20006;-68
2024/04/12 03:15:19;;;;;;;24.52;13.18;;;15.20;99.90;;;;;;5433171;26;19995;-70
2024/04/12 03:17:46;;;;;;;20.77;12.20;;;15.20;99.90;;;;;;5433871;26;20131;-71
2024/04/12 03:20:15;;;;;;;21.20;11.35;;;15.20;99.90;;;;;;5436021;26;20074;-68
2024/04/12 03:22:42;;;;;;;26.52;11.80;;;15.20;99.90;;;;;;5436832;26;20466;-69
2024/04/12 03:25:07;;;;;;;20.48;12.63;;;15.20;99.90;;;;;;5437695;26;20024;-72
2024/04/12 03:27:33;;;;;;;23.67;12.15;;;15.20;99.90;;;;;;5427751;26;20669;-70
2024/04/12 03:29:58;;;;;;;22.85;13.18;;;15.20;99.90;;;;;;5435919;26;20009;-70
2024/04/12 03:32:32;;;;;;;22.00;12.43;;;15.20;99.90;;;;;;5427376;26;20003;-69
2024/04/12 03:34:59;;;;;;;18.92;11.70;;;15.20;99.90;;;;;;5430422;26;20019;-70
2024/04/12 03:37:36;;;;;;;23.98;12.95;;;15.10;99.90;;;;;;5433622;26;20018;-71
2024/04/12 03:40:07;;;;;;;23.50;13.32;;;15.20;99.90;;;;;;5425472;26;19998;-69
2024/04/12 03:42:33;;;;;;;21.55;12.60;;;15.20;99.90;;;;;;5417905;26;20387;-70
2024/04/12 03:44:58;;;;;;;20.95;12.23;;;15.20;99.90;;;;;;5426068;26;20006;-69
2024/04/12 03:47:27;;;;;;;23.70;12.43;;;15.20;99.90;;;;;;5432861;26;20310;-69
2024/04/12 03:49:53;;;;;;;22.10;12.65;;;15.20;99.90;;;;;;5434221;26;20007;-70
2024/04/12 03:52:22;;;;;;;26.42;13.00;;;15.20;99.90;;;;;;5428531;26;20069;-70
2024/04/12 03:54:48;;;;;;;28.95;12.10;;;15.20;99.90;;;;;;5431054;26;20515;-69
2024/04/12 03:57:14;;;;;;;23.08;12.77;;;15.20;99.90;;;;;;5415701;26;20000;-69
2024/04/12 03:59:43;;;;;;;24.42;12.45;;;15.20;99.90;;;;;;5423566;26;20021;-69
2024/04/12 04:02:09;;;;;;;21.85;12.00;;;15.20;99.90;;;;;;5425413;26;20053;-69
2024/04/12 04:04:45;;;;;;;22.13;13.30;;;15.20;99.90;;;;;;5426062;26;20105;-68
2024/04/12 04:07:14;;;;;;;20.70;11.60;;;15.20;99.90;;;;;;5425922;26;20343;-69
2024/04/12 04:09:42;;;;;;;25.30;11.63;;;15.20;99.90;;;;;;5429853;26;20039;-68
2024/04/12 04:12:14;;;;;;;21.63;12.33;;;15.10;99.90;;;;;;5429147;26;20171;-69
2024/04/12 04:14:47;;;;;;;23.60;12.52;;;15.10;99.90;;;;;;5432553;26;20006;-69
2024/04/12 04:17:14;;;;;;;19.65;11.45;;;15.10;99.90;;;;;;5433771;26;20115;-70
2024/04/12 04:19:41;;;;;;;16.52;10.20;;;15.10;99.90;;;;;;5432900;26;20014;-69
2024/04/12 04:24:53;;;;;;;22.38;10.73;;;15.20;99.90;;;;;;5424297;26;20468;-70
2024/04/12 04:27:21;;;;;;;20.13;10.75;;;15.20;99.90;;;;;;5427428;26;20015;-68
2024/04/12 04:29:48;;;;;;;20.30;10.52;;;15.20;99.90;;;;;;5422157;26;20008;-67
2024/04/12 04:32:14;;;;;;;26.45;12.00;;;15.20;99.90;;;;;;5427249;26;20456;-68
2024/04/12 04:34:44;;;;;;;23.98;12.23;;;15.20;99.90;;;;;;5428103;26;20018;-67
2024/04/12 04:37:09;;;;;;;22.40;11.45;;;15.20;99.90;;;;;;5417511;26;20361;-68
2024/04/12 04:39:35;;;;;;;24.42;12.45;;;15.20;99.90;;;;;;5427322;26;20014;-68
2024/04/12 04:42:01;;;;;;;27.33;11.70;;;15.10;99.90;;;;;;5423068;26;20080;-68
2024/04/12 04:44:26;;;;;;;20.65;12.00;;;15.10;99.90;;;;;;5426175;26;20330;-68
2024/04/12 04:46:53;;;;;;;26.20;12.40;;;15.20;99.90;;;;;;5425616;26;20015;-68
2024/04/12 04:49:23;;;;;;;22.55;12.27;;;15.10;99.90;;;;;;5425978;26;20780;-68
2024/04/12 04:51:49;;;;;;;20.67;11.75;;;15.10;99.90;;;;;;5425365;26;19999;-68
2024/04/12 04:54:15;;;;;;;18.77;10.80;;;15.10;99.90;;;;;;5429521;26;20010;-68
2024/04/12 04:56:42;;;;;;;30.73;13.77;;;15.10;99.90;;;;;;5430453;26;20002;-68
2024/04/12 04:59:09;;;;;;;27.05;12.00;;;15.20;99.90;;;;;;5430688;26;20010;-67
2024/04/12 05:01:34;;;;;;;20.98;11.30;;;15.10;99.90;;;;;;5432261;26;20495;-69
2024/04/12 05:04:01;;;;;;;24.33;12.00;;;15.20;99.90;;;;;;5429873;26;19995;-67
2024/04/12 05:06:27;;;;;;;21.00;11.35;;;15.10;99.90;;;;;;5429560;26;20006;-67
2024/04/12 05:08:55;;;;;;;24.42;12.77;;;15.20;99.90;;;;;;5416990;26;20627;-68
2024/04/12 05:11:21;;;;;;;21.55;11.43;;;15.20;99.90;;;;;;5428768;26;20444;-67
2024/04/12 05:13:50;;;;;;;23.55;11.55;;;15.20;99.90;;;;;;5434940;26;19995;-68
2024/04/12 05:16:19;;;;;;;25.02;12.13;;;15.20;99.90;;;;;;5428446;26;20069;-67
2024/04/12 05:18:54;;;;;;;27.05;12.18;;;15.20;99.90;;;;;;5421082;26;19999;-68
2024/04/12 05:21:20;;;;;;;21.70;12.13;;;15.20;99.90;;;;;;5431986;26;20465;-68
2024/04/12 05:23:48;;;;;;;19.90;11.73;;;15.20;99.90;;;;;;5424264;26;20076;-68
2024/04/12 05:26:13;;;;;;;27.45;12.27;;;15.20;99.90;;;;;;5429413;26;20000;-68
2024/04/12 05:28:39;;;;;;;25.67;12.18;;;15.30;99.90;;;;;;5432313;26;20102;-68
2024/04/12 05:31:13;;;;;;;25.48;12.55;;;15.30;99.90;;;;;;5427513;26;19999;-69
2024/04/12 05:33:44;;;;;;;27.52;13.43;;;15.30;99.90;;;;;;5435353;26;20003;-68
2024/04/12 05:36:10;;;;;;;26.58;13.40;;;15.30;99.90;;;;;;5427143;26;20002;-68
2024/04/12 05:38:39;;;;;;;23.33;12.70;;;15.30;99.90;;;;;;5429901;26;19996;-68
2024/04/12 05:41:05;;;;;;;25.52;12.98;;;15.30;99.90;;;;;;5422336;26;20365;-69
2024/04/12 05:43:31;;;;;;;26.55;13.13;;;15.30;99.90;;;;;;5431310;26;20006;-67
2024/04/12 05:45:57;;;;;;;25.00;13.95;;;15.30;99.90;;;;;;5429904;26;20075;-68
2024/04/12 05:48:24;;;;;;;30.70;14.50;;;15.30;99.90;;;;;;5431631;26;20018;-68
2024/04/12 05:50:53;;;;;;;25.90;13.20;;;15.30;99.90;;;;;;5437698;26;20003;-67
2024/04/12 05:53:22;;;;;;;25.27;13.52;;;15.30;99.90;;;;;;5432532;26;20007;-68
2024/04/12 05:56:20;;;;;;;26.10;14.52;;;15.20;99.90;;;;;;5431678;26;20110;-67
2024/04/12 05:58:42;;;;;;;23.08;13.75;;;15.30;99.90;;;;;;5437496;26;19999;-67
2024/04/12 06:01:09;;;;;;;27.00;13.02;;;15.30;99.90;;;;;;5421170;26;19995;-68
2024/04/12 06:03:48;;;;;;;24.02;13.73;;;15.30;99.90;;;;;;5431660;26;20014;-68
2024/04/12 06:06:14;;;;;;;24.75;14.02;;;15.40;99.90;;;;;;5439994;26;20628;-68
2024/04/12 06:08:45;;;;;;;26.65;13.30;;;15.40;99.90;;;;;;5427698;26;20058;-68
2024/04/12 06:11:11;;;;;;;28.00;14.50;;;15.40;99.90;;;;;;5430540;26;20002;-68
2024/04/12 06:13:38;;;;;;;28.33;14.05;;;15.40;99.90;;;;;;5434013;26;20027;-68
2024/04/12 06:16:04;;;;;;;28.10;15.35;;;15.40;99.90;;;;;;5433177;26;20065;-68
2024/04/12 06:18:30;;;;;;;25.08;14.15;;;15.50;99.90;;;;;;5436188;26;20003;-68
2024/04/12 06:20:55;;;;;;;24.48;14.55;;;15.50;99.90;;;;;;5427249;26;19991;-67
2024/04/12 06:23:22;;;;;;;23.58;13.75;;;15.50;99.90;;;;;;5429279;26;20013;-68
2024/04/12 06:25:49;;;;;;;25.40;14.73;;;15.60;99.90;;;;;;5434015;26;20043;-68
2024/04/12 06:28:15;;;;;;;24.77;14.05;;;15.60;99.90;;;;;;5438951;26;20075;-67
2024/04/12 06:30:48;;;;;;;22.38;12.45;;;15.60;99.90;;;;;;5432640;26;20006;-67
2024/04/12 06:33:22;;;;;;;21.17;11.85;;;15.70;99.90;;;;;;5429784;26;20080;-70
2024/04/12 06:35:49;;;;;;;22.52;13.10;;;15.70;99.90;;;;;;5454431;26;20451;-67
2024/04/12 06:38:25;;;;;;;26.67;11.25;;;15.70;99.90;;;;;;5431739;26;20017;-67
2024/04/12 06:40:57;;;;;;;22.05;10.90;;;15.70;99.90;;;;;;5433981;26;19998;-67
2024/04/12 06:43:23;;;;;;;21.42;10.75;;;15.70;99.90;;;;;;5424806;26;20726;-67
2024/04/12 06:46:08;;;;;;;22.52;10.57;;;15.80;99.90;;;;;;5424227;26;20344;-67
2024/04/12 06:48:35;;;;;;;17.63;9.45;;;15.90;99.90;;;;;;5430540;26;19995;-68
2024/04/12 06:51:05;;;;;;;17.42;9.10;;;15.90;99.90;;;;;;5433341;26;20409;-68
2024/04/12 06:53:31;;;;;;;17.42;8.23;;;16.00;99.90;;;;;;5433152;26;20009;-68
2024/04/12 06:56:06;;;;;;;19.33;8.20;;;15.90;99.90;;;;;;5431346;26;20010;-68
2024/04/12 06:58:38;;;;;;;11.60;7.13;;;16.00;99.90;;;;;;5426305;26;20019;-69
2024/04/12 07:01:05;;;;;;;15.18;7.47;;;16.00;99.90;;;;;;5426931;26;20041;-68
2024/04/12 07:03:34;;;;;;;12.27;6.78;;;16.00;99.90;;;;;;5426150;26;19992;-68
2024/04/12 07:06:01;;;;;;;11.88;6.20;;;15.90;99.90;;;;;;5435475;26;20006;-67
2024/04/12 07:08:27;;;;;;;10.35;6.05;;;16.00;99.90;;;;;;5428909;26;20078;-69
2024/04/12 07:10:54;;;;;;;14.02;5.80;;;16.10;99.90;;;;;;5431620;26;20414;-70
2024/04/12 07:13:27;;;;;;;11.23;6.05;;;16.20;99.90;;;;;;5431383;26;20049;-68
2024/04/12 07:15:56;;;;;;;11.82;5.88;;;16.30;99.90;;;;;;5430375;26;20355;-67
2024/04/12 07:18:22;;;;;;;13.45;6.20;;;16.30;99.90;;;;;;5431999;26;20113;-68
2024/04/12 07:20:52;;;;;;;11.82;5.50;;;16.30;99.90;;;;;;5432543;26;20068;-67
2024/04/12 07:23:18;;;;;;;14.23;5.47;;;16.30;99.90;;;;;;5421453;26;20015;-68
2024/04/12 07:25:47;;;;;;;11.50;5.10;;;16.40;99.90;;;;;;5435090;26;20075;-68
2024/04/12 07:28:14;;;;;;;12.30;5.45;;;16.40;99.90;;;;;;5423162;26;20035;-67
2024/04/12 07:30:45;;;;;;;14.90;4.60;;;16.40;99.90;;;;;;5427021;26;20324;-68
2024/04/12 07:33:14;;;;;;;6.35;3.88;;;16.50;99.90;;;;;;5423218;26;20280;-68
2024/04/12 07:35:43;;;;;;;8.48;5.22;;;16.50;99.90;;;;;;5435633;26;19998;-67
2024/04/12 07:38:09;;;;;;;8.15;4.07;;;16.50;99.90;;;;;;5422197;25;20473;-67
2024/04/12 07:40:39;;;;;;;7.20;3.75;;;16.50;99.90;;;;;;5428373;26;20034;-68
2024/04/12 07:43:09;;;;;;;6.55;3.83;;;16.40;99.90;;;;;;5424390;25;20456;-68
2024/04/12 07:45:38;;;;;;;6.85;3.83;;;16.50;99.90;;;;;;5431072;26;20444;-68
2024/04/12 07:50:47;;;;;;;5.35;3.33;;;16.40;99.90;;;;;;5428926;26;20014;-68
2024/04/12 07:53:25;;;;;;;6.28;3.60;;;16.50;99.90;;;;;;5423021;26;20471;-68
2024/04/12 07:55:58;;;;;;;8.85;2.92;;;16.50;99.90;;;;;;5427283;26;20000;-69
2024/04/12 07:58:27;;;;;;;8.77;3.92;;;16.50;99.90;;;;;;5432531;26;20079;-68
2024/04/12 08:01:09;;;;;;;6.72;2.72;;;16.40;99.90;;;;;;5428035;26;19995;-68
2024/04/12 08:03:39;;;;;;;10.23;3.03;;;16.50;99.90;;;;;;5437827;26;20465;-67
2024/04/12 08:06:05;;;;;;;6.95;2.90;;;16.60;99.90;;;;;;5422814;26;20370;-68
2024/04/12 08:08:43;;;;;;;8.60;3.50;;;16.70;99.90;;;;;;5426970;26;20006;-68
2024/04/12 08:11:12;;;;;;;7.95;2.63;;;16.80;99.90;;;;;;5429349;26;20004;-68
2024/04/12 08:13:50;;;;;;;4.32;2.63;;;16.80;99.90;;;;;;5430340;26;19998;-68
2024/04/12 08:16:16;;;;;;;5.05;2.95;;;16.90;99.90;;;;;;5437554;26;20010;-68
2024/04/12 08:18:43;;;;;;;4.32;2.40;;;16.90;99.90;;;;;;5430164;26;19991;-68
2024/04/12 08:21:12;;;;;;;10.20;3.63;;;16.90;99.90;;;;;;5427739;26;20395;-68
2024/04/12 08:23:43;;;;;;;5.13;2.22;;;16.90;99.90;;;;;;5430238;26;20109;-68
2024/04/12 08:26:10;;;;;;;7.28;3.88;;;16.90;99.90;;;;;;5453721;26;19995;-68
2024/04/12 08:28:43;;;;;;;4.60;2.70;;;17.00;99.90;;;;;;5432078;26;20006;-68
2024/04/12 08:31:12;;;;;;;6.15;3.05;;;17.00;99.90;;;;;;5434510;26;20025;-68
2024/04/12 08:33:42;;;;;;;6.15;2.40;;;17.00;99.90;;;;;;5429003;26;20043;-68
2024/04/12 08:36:14;;;;;;;6.28;2.47;;;17.00;99.90;;;;;;5430535;26;20018;-67
2024/04/12 08:38:54;;;;;;;4.57;2.42;;;17.00;99.90;;;;;;5422484;26;20010;-68
2024/04/12 08:41:23;;;;;;;5.20;3.10;;;17.00;99.90;;;;;;5425906;26;20488;-67
2024/04/12 08:43:59;;;;;;;9.15;3.72;;;17.00;99.90;;;;;;5423691;26;20006;-67
2024/04/12 08:46:33;;;;;;;7.13;3.67;;;17.00;99.90;;;;;;5431217;26;20468;-68
2024/04/12 08:49:00;;;;;;;8.10;3.20;;;17.00;99.90;;;;;;5434883;26;20340;-68
2024/04/12 08:51:32;;;;;;;6.53;3.88;;;17.10;99.90;;;;;;5424941;26;20040;-69
2024/04/12 08:54:03;;;;;;;8.05;4.70;;;17.10;99.90;;;;;;5434537;26;20013;-67
2024/04/12 08:56:29;;;;;;;9.38;5.28;;;17.10;99.90;;;;;;5433638;26;20018;-68
2024/04/12 08:59:05;;;;;;;7.82;4.78;;;17.10;99.90;;;;;;5421489;26;20027;-67
2024/04/12 09:01:32;;;;;;;9.48;4.85;;;17.20;99.90;;;;;;5424380;26;20014;-68
2024/04/12 09:04:13;;;;;;;7.00;4.40;;;17.20;99.90;;;;;;5417108;26;20010;-68
2024/04/12 09:06:39;;;;;;;10.63;5.00;;;17.30;99.90;;;;;;5428204;26;20026;-68
2024/04/12 09:09:04;;;;;;;9.15;4.97;;;17.40;99.90;;;;;;5423280;26;20549;-68
2024/04/12 09:11:31;;;;;;;8.75;4.80;;;17.50;99.90;;;;;;5430211;26;20013;-68
2024/04/12 09:14:08;;;;;;;9.43;4.87;;;17.50;99.90;;;;;;5430141;26;20046;-68
2024/04/12 09:16:44;;;;;;;5.20;4.13;;;17.60;99.90;;;;;;5432999;26;20363;-69
2024/04/12 09:19:14;;;;;;;10.18;4.57;;;17.60;99.90;;;;;;5452296;26;19996;-67
2024/04/12 09:21:55;;;;;;;7.97;4.97;;;17.70;99.90;;;;;;5424582;26;20036;-68
2024/04/12 09:24:31;;;;;;;9.52;4.57;;;17.80;99.90;;;;;;5427388;26;20474;-67
2024/04/12 09:27:09;;;;;;;8.68;4.57;;;17.80;99.90;;;;;;5427890;26;20022;-69
2024/04/12 09:29:43;;;;;;;9.88;4.47;;;17.80;99.90;;;;;;5426465;26;20003;-68
2024/04/12 09:34:55;;;;;;;9.73;5.07;;;18.00;99.90;;;;;;5429434;26;20002;-69
2024/04/12 09:40:04;;;;;;;8.35;4.72;;;18.30;99.90;;;;;;5442142;26;20232;-69
2024/04/12 09:45:20;;;;;;;7.47;4.45;;;18.30;99.70;;;;;;5424587;26;20136;-69
2024/04/12 10:37:51;;;;;;;6.60;4.53;;;18.10;99.90;;;;;;5429864;26;20007;-67
2024/04/12 10:40:16;;;;;;;6.97;4.13;;;18.10;99.90;;;;;;5433719;26;20003;-67
2024/04/12 10:42:45;;;;;;;4.60;3.70;;;18.10;99.90;;;;;;5424413;26;20352;-67
2024/04/12 10:45:15;;;;;;;9.27;4.40;;;18.20;99.90;;;;;;5433025;26;20479;-68
2024/04/12 10:47:44;;;;;;;7.10;4.32;;;18.20;99.90;;;;;;5438214;26;20043;-67
2024/04/12 10:50:11;;;;;;;8.05;3.85;;;18.30;99.90;;;;;;5438754;26;20010;-68
2024/04/12 10:52:38;;;;;;;5.68;3.30;;;18.30;99.90;;;;;;5432758;26;20549;-68
2024/04/12 10:55:09;;;;;;;5.70;3.65;;;18.40;99.90;;;;;;5430684;26;20015;-67
2024/04/12 10:57:47;;;;;;;6.28;4.03;;;18.40;99.90;;;;;;5439911;26;19994;-67
2024/04/12 11:00:14;;;;;;;6.40;4.00;;;18.20;99.90;;;;;;5436094;26;20143;-68
2024/04/12 11:02:54;;;;;;;8.13;4.30;;;18.10;99.90;;;;;;5443952;26;20006;-67
2024/04/12 11:07:51;;;;;;;6.60;4.07;;;18.20;99.90;;;;;;5429029;26;19992;-70
2024/04/12 11:10:24;;;;;;;5.20;4.13;;;18.10;99.90;;;;;;5432195;26;20022;-68
2024/04/12 11:12:59;;;;;;;5.28;3.67;;;18.20;99.90;;;;;;5424024;26;20072;-67
2024/04/12 11:31:48;;;;;;;9.00;3.65;;;18.80;99.90;;;;;;5428882;26;20091;-67
2024/04/12 11:34:29;;;;;;;5.72;3.70;;;18.90;99.90;;;;;;5441870;26;20010;-68
2024/04/12 11:36:55;;;;;;;6.15;3.33;;;18.90;99.90;;;;;;5428066;26;19995;-68
2024/04/12 11:39:27;;;;;;;5.30;3.65;;;18.90;99.90;;;;;;5430857;26;19992;-68
2024/04/12 11:41:55;;;;;;;6.05;3.83;;;18.80;99.90;;;;;;5429964;26;20468;-68
2024/04/12 11:44:24;;;;;;;7.30;4.18;;;18.90;99.90;;;;;;5436090;26;20034;-68
2024/04/12 11:46:50;;;;;;;11.95;5.10;;;18.90;99.90;;;;;;5422298;26;19999;-68
2024/04/12 11:49:26;;;;;;;5.70;4.03;;;18.90;99.90;;;;;;5426884;26;20017;-68
2024/04/12 11:51:55;;;;;;;6.70;3.83;;;19.00;99.90;;;;;;5429259;26;20003;-68
2024/04/12 11:54:29;;;;;;;4.82;3.00;;;18.90;99.80;;;;;;5431432;26;19994;-67
2024/04/12 11:57:05;;;;;;;8.45;3.97;;;18.90;99.90;;;;;;5435196;26;20007;-68
2024/04/12 11:59:32;;;;;;;4.90;2.70;;;18.90;99.40;;;;;;5439184;26;19999;-67
2024/04/12 12:01:59;;;;;;;7.70;3.03;;;19.00;99.30;;;;;;5435497;26;20068;-68
2024/04/12 12:04:28;;;;;;;6.90;3.50;;;19.10;99.60;;;;;;5430459;26;20003;-67
2024/04/12 12:06:59;;;;;;;8.48;3.47;;;19.00;99.20;;;;;;5437779;26;20440;-67
2024/04/12 12:09:31;;;;;;;8.20;3.47;;;19.10;99.50;;;;;;5429542;26;20002;-68
2024/04/12 12:11:57;;;;;;;9.82;3.72;;;19.20;99.10;;;;;;5432365;26;20074;-70
2024/04/12 12:14:25;;;;;;;7.45;3.70;;;19.10;99.10;;;;;;5431683;26;20015;-68
2024/04/12 12:16:57;;;;;;;6.95;3.45;;;19.20;99.10;;;;;;5431939;26;20003;-68
2024/04/12 12:19:23;;;;;;;7.25;3.80;;;19.20;99.30;;;;;;5429147;26;20014;-68
2024/04/12 12:21:51;;;;;;;5.13;2.90;;;19.30;99.30;;;;;;5429922;26;19994;-67
2024/04/12 12:24:17;;;;;;;10.32;3.50;;;19.40;99.40;;;;;;5422457;26;20007;-68
2024/04/12 12:26:44;;;;;;;9.73;4.20;;;19.50;99.30;;;;;;5430045;26;20006;-68
2024/04/12 12:29:13;;;;;;;5.53;3.80;;;19.50;99.10;;;;;;5429544;26;19998;-68
2024/04/12 12:31:38;;;;;;;7.15;3.70;;;19.40;99.10;;;;;;5415487;26;20474;-68
2024/04/12 12:34:05;;;;;;;8.90;3.85;;;19.40;99.20;;;;;;5419242;26;20003;-67
2024/04/12 12:36:30;;;;;;;13.38;4.40;;;19.40;99.30;;;;;;5437421;26;20048;-68
2024/04/12 12:38:58;;;;;;;8.00;4.13;;;19.50;99.20;;;;;;5435188;26;20091;-68
2024/04/12 12:41:25;;;;;;;7.38;4.35;;;19.50;99.40;;;;;;5422485;26;20038;-68
2024/04/12 12:43:52;;;;;;;7.80;4.63;;;19.60;99.20;;;;;;5436711;26;19995;-69
2024/04/12 12:46:21;;;;;;;6.93;4.10;;;19.50;99.30;;;;;;5432290;26;20073;-68
2024/04/12 12:48:48;;;;;;;12.60;5.07;;;19.50;99.30;;;;;;5424703;26;20084;-68
2024/04/12 12:51:15;;;;;;;10.25;5.18;;;19.40;99.40;;;;;;5425911;26;20004;-67
2024/04/12 12:53:43;;;;;;;9.82;4.47;;;19.40;99.50;;;;;;5429496;26;20038;-68
2024/04/12 12:56:09;;;;;;;8.82;4.18;;;19.40;99.50;;;;;;5433423;26;20080;-68
2024/04/12 12:58:37;;;;;;;10.27;4.45;;;19.40;99.50;;;;;;5436320;26;20448;-69
2024/04/12 13:01:07;;;;;;;14.40;4.63;;;19.50;99.50;;;;;;5430495;26;20003;-69
2024/04/12 13:03:35;;;;;;;9.63;4.30;;;19.50;99.60;;;;;;5430738;26;20018;-68
2024/04/12 13:06:06;;;;;;;7.65;4.18;;;19.60;99.60;;;;;;5431030;26;20006;-68
2024/04/12 13:08:33;;;;;;;6.43;4.10;;;19.60;99.60;;;;;;5429924;26;20006;-70
2024/04/12 13:10:59;;;;;;;6.63;3.83;;;19.60;99.70;;;;;;5436290;26;20002;-68
2024/04/12 13:13:26;;;;;;;9.88;5.22;;;19.60;99.70;;;;;;5432952;26;20447;-68
2024/04/12 13:15:56;;;;;;;;;;;19.60;99.60;;;;;;5426758;26;20007;-68
2024/04/12 13:18:23;;;;;;;8.23;5.35;;;19.60;99.60;;;;;;5454471;26;20010;-68
2024/04/12 13:20:51;;;;;;;7.10;4.63;;;19.50;99.50;;;;;;5430300;26;20102;-68
2024/04/12 13:23:17;;;;;;;7.05;4.97;;;19.60;99.70;;;;;;5429105;26;20002;-68
2024/04/12 13:25:46;;;;;;;8.73;4.65;;;19.50;99.70;;;;;;5428723;26;19994;-68
2024/04/12 13:28:11;;;;;;;7.35;4.50;;;19.50;99.80;;;;;;5422343;26;20938;-68
2024/04/12 13:30:41;;;;;;;8.60;4.75;;;19.60;99.90;;;;;;5429032;26;20008;-68
2024/04/12 13:33:08;;;;;;;8.82;4.65;;;19.60;99.80;;;;;;5426533;26;20025;-68
2024/04/12 13:35:40;;;;;;;8.85;4.78;;;19.60;99.60;;;;;;5431295;26;20416;-68
2024/04/12 13:38:14;;;;;;;7.35;4.22;;;19.60;99.70;;;;;;5426626;26;19998;-69
2024/04/12 13:40:42;;;;;;;7.07;4.55;;;19.60;99.50;;;;;;5423534;26;20022;-67
2024/04/12 13:43:14;;;;;;;7.55;4.35;;;19.50;99.60;;;;;;5428588;26;20091;-67
2024/04/12 13:51:18;;;;;;;6.53;4.20;;;19.70;99.90;;;;;;5432023;26;20014;-68
2024/04/12 13:53:50;;;;;;;8.00;4.50;;;19.90;99.60;;;;;;5431138;26;20082;-68
2024/04/12 13:59:10;;;;;;;8.05;5.13;;;19.90;99.30;;;;;;5425378;26;20011;-68
2024/04/12 14:01:40;;;;;;;10.48;6.10;;;19.90;99.20;;;;;;5431066;26;20002;-68
2024/04/12 14:04:09;;;;;;;6.55;4.75;;;19.90;99.30;;;;;;5425983;26;20018;-67
2024/04/12 14:06:38;;;;;;;8.95;5.22;;;19.90;99.30;;;;;;5431345;26;20044;-68
2024/04/12 14:09:09;;;;;;;6.47;5.60;;;19.90;99.40;;;;;;5433261;26;19999;-69
2024/04/12 14:11:35;;;;;;;14.10;5.50;;;19.80;99.40;;;;;;5434799;26;20045;-68
2024/04/12 14:14:03;;;;;;;10.48;5.07;;;19.70;99.50;;;;;;5425045;26;20092;-68
2024/04/12 14:16:29;;;;;;;10.25;5.55;;;19.80;99.60;;;;;;5428164;26;20012;-69